Time;durP1;ratioP1;P1;durP2;ratioP2;P2;SDS_P1;SDS_P2;PMS_P1;PMS_P2;Temp;Humidity;BMP_temperature;BMP_pressure;BME280_temperature;BME280_humidity;BME280_pressure;Samples;Min_cycle;Max_cycle;Signal;HPM_P1;HPM_P2
2023/05/05 00:00:14;;;;;;;;;;;16.00;62.10;;;;;;5035121;28;19932;-81
2023/05/05 00:02:40;;;;;;;;;;;16.10;61.10;;;;;;5038800;28;19913;-82
2023/05/05 00:05:05;;;;;;;;;;;16.30;58.20;;;;;;5030838;28;19967;-81
2023/05/05 00:07:31;;;;;;;;;;;16.50;57.80;;;;;;5026047;28;19979;-82
2023/05/05 00:09:56;;;;;;;;;;;16.60;58.80;;;;;;5030372;28;19913;-81
2023/05/05 00:12:22;;;;;;;;;;;16.70;57.00;;;;;;5035555;28;19921;-81
2023/05/05 00:14:47;;;;;;;;;;;16.90;55.50;;;;;;5029382;28;19965;-82
2023/05/05 00:17:13;;;;;;;;;;;17.00;55.50;;;;;;5031065;28;19924;-82
2023/05/05 00:19:39;;;;;;;;;;;17.00;55.50;;;;;;5036825;28;19921;-82
2023/05/05 00:22:05;;;;;;;;;;;17.00;55.90;;;;;;5034014;28;20369;-82
2023/05/05 00:24:30;;;;;;;;;;;17.10;55.10;;;;;;5030426;28;19921;-82
2023/05/05 00:26:55;;;;;;;;;;;17.10;55.00;;;;;;5040282;28;20485;-82
2023/05/05 00:29:21;;;;;;;;;;;17.10;55.10;;;;;;5038696;28;19917;-83
2023/05/05 00:31:49;;;;;;;;;;;17.10;55.20;;;;;;5024691;28;19913;-82
2023/05/05 00:34:14;;;;;;;;;;;17.10;55.30;;;;;;5036228;28;19913;-81
2023/05/05 00:36:40;;;;;;;;;;;17.20;54.70;;;;;;5033206;28;19925;-83
2023/05/05 00:39:05;;;;;;;;;;;17.20;55.20;;;;;;5023415;28;19913;-83
2023/05/05 00:41:31;;;;;;;;;;;17.30;53.30;;;;;;5025945;28;20345;-81
2023/05/05 00:43:56;;;;;;;;;;;17.50;52.80;;;;;;5031756;28;19927;-82
2023/05/05 00:46:24;;;;;;;;;;;17.70;52.00;;;;;;5033214;28;19913;-83
2023/05/05 00:48:50;;;;;;;;;;;17.60;52.70;;;;;;5037307;28;19951;-81
2023/05/05 00:51:16;;;;;;;;;;;17.60;52.30;;;;;;5026322;28;20300;-83
2023/05/05 00:53:43;;;;;;;;;;;17.80;52.00;;;;;;5032798;28;19933;-82
2023/05/05 00:56:12;;;;;;;;;;;17.70;52.70;;;;;;5027701;28;19913;-83
2023/05/05 00:58:41;;;;;;;;;;;17.60;53.30;;;;;;5026106;28;19967;-81
2023/05/05 01:01:07;;;;;;;;;;;17.60;52.70;;;;;;5034142;28;20006;-82
2023/05/05 01:03:34;;;;;;;;;;;17.60;53.60;;;;;;5033344;28;19913;-81
2023/05/05 01:06:18;;;;;;;;;;;17.60;54.50;;;;;;5037910;28;19975;-82
2023/05/05 01:09:07;;;;;;;;;;;17.60;53.60;;;;;;5030567;28;19914;-79
2023/05/05 01:11:45;;;;;;;;;;;17.60;53.30;;;;;;5027946;28;20639;-81
2023/05/05 01:14:13;;;;;;;;;;;17.60;53.70;;;;;;5033198;28;19940;-81
2023/05/05 01:16:43;;;;;;;;;;;17.60;54.20;;;;;;5033075;28;20287;-80
2023/05/05 01:19:08;;;;;;;;;;;17.50;53.90;;;;;;5032867;28;20376;-81
2023/05/05 01:21:39;;;;;;;;;;;17.60;53.60;;;;;;5035899;28;19913;-81
2023/05/05 01:24:09;;;;;;;;;;;17.60;54.30;;;;;;5028215;28;19953;-80
2023/05/05 01:26:54;;;;;;;;;;;17.60;54.50;;;;;;5030893;28;19913;-81
2023/05/05 01:29:30;;;;;;;;;;;17.50;54.60;;;;;;5032249;28;19913;-81
2023/05/05 01:32:01;;;;;;;;;;;17.50;54.10;;;;;;5025782;28;20011;-81
2023/05/05 01:34:28;;;;;;;;;;;17.60;54.40;;;;;;5027436;28;20674;-80
2023/05/05 01:36:57;;;;;;;;;;;17.60;54.90;;;;;;5031297;28;19979;-81
2023/05/05 01:39:26;;;;;;;;;;;17.50;54.60;;;;;;5026317;28;19914;-81
2023/05/05 01:41:54;;;;;;;;;;;17.50;55.10;;;;;;5030254;28;20300;-81
2023/05/05 01:44:20;;;;;;;;;;;17.50;54.60;;;;;;5030951;28;19921;-82
2023/05/05 01:46:47;;;;;;;;;;;17.50;55.10;;;;;;5050702;28;19936;-81
2023/05/05 01:49:14;;;;;;;;;;;17.50;54.70;;;;;;5031031;28;19931;-81
2023/05/05 01:51:40;;;;;;;;;;;17.60;55.30;;;;;;5027703;28;19914;-81
2023/05/05 01:54:07;;;;;;;;;;;17.50;55.70;;;;;;5030499;28;19920;-81
2023/05/05 01:56:33;;;;;;;;;;;17.50;55.50;;;;;;5020934;28;19929;-81
2023/05/05 01:59:00;;;;;;;;;;;17.60;55.10;;;;;;5031174;28;20356;-82
2023/05/05 02:01:26;;;;;;;;;;;17.50;55.30;;;;;;5031356;28;19959;-81
2023/05/05 02:03:53;;;;;;;;;;;17.50;54.80;;;;;;5033650;28;20388;-80
2023/05/05 02:06:19;;;;;;;;;;;17.50;55.40;;;;;;5037321;28;19909;-80
2023/05/05 02:08:46;;;;;;;;;;;17.50;55.30;;;;;;5033087;28;19909;-81
2023/05/05 02:11:11;;;;;;;;;;;17.50;55.60;;;;;;5023530;28;19924;-79
2023/05/05 02:13:37;;;;;;;;;;;17.50;55.40;;;;;;5030892;28;19961;-81
2023/05/05 02:16:03;;;;;;;;;;;17.60;55.50;;;;;;5027677;28;19918;-80
2023/05/05 02:18:32;;;;;;;;;;;17.50;55.70;;;;;;5027671;28;19996;-80
2023/05/05 02:20:57;;;;;;;;;;;17.50;55.70;;;;;;5038598;28;19913;-80
2023/05/05 02:23:23;;;;;;;;;;;17.50;56.10;;;;;;5027677;28;19956;-80
2023/05/05 02:25:50;;;;;;;;;;;17.50;56.00;;;;;;5031736;28;19940;-81
2023/05/05 02:28:30;;;;;;;;;;;17.50;56.60;;;;;;5034243;28;20250;-80
2023/05/05 02:30:56;;;;;;;;;;;17.40;57.20;;;;;;5030550;28;19948;-81
2023/05/05 02:33:24;;;;;;;;;;;17.40;56.90;;;;;;5031927;28;19953;-80
2023/05/05 02:35:50;;;;;;;;;;;17.50;57.50;;;;;;5042341;28;19924;-81
2023/05/05 02:38:16;;;;;;;;;;;17.50;58.10;;;;;;5037932;28;19921;-80
2023/05/05 02:40:43;;;;;;;;;;;17.40;58.80;;;;;;5040115;28;19914;-80
2023/05/05 02:43:10;;;;;;;;;;;17.40;59.10;;;;;;5035254;28;19967;-81
2023/05/05 02:45:35;;;;;;;;;;;17.30;59.50;;;;;;5032861;28;19920;-80
2023/05/05 02:48:02;;;;;;;;;;;17.40;59.70;;;;;;5032780;28;20003;-81
2023/05/05 02:50:28;;;;;;;;;;;17.30;60.50;;;;;;5035980;28;19939;-81
2023/05/05 02:52:54;;;;;;;;;;;17.30;60.90;;;;;;5038412;28;19913;-81
2023/05/05 02:55:20;;;;;;;;;;;17.30;61.30;;;;;;5038938;28;20039;-81
2023/05/05 02:57:50;;;;;;;;;;;17.30;61.20;;;;;;5037900;28;19917;-81
2023/05/05 03:00:22;;;;;;;;;;;17.10;61.90;;;;;;5035701;28;19992;-81
2023/05/05 03:02:54;;;;;;;;;;;17.10;62.50;;;;;;5034389;28;19937;-81
2023/05/05 03:05:24;;;;;;;;;;;17.00;62.80;;;;;;5038125;28;19913;-81
2023/05/05 03:07:54;;;;;;;;;;;17.00;63.50;;;;;;5031728;28;19984;-81
2023/05/05 03:10:24;;;;;;;;;;;17.00;63.40;;;;;;5032495;28;20431;-79
2023/05/05 03:13:12;;;;;;;;;;;16.90;64.70;;;;;;5084486;23;20352;-86
2023/05/05 03:15:48;;;;;;;;;;;16.90;65.10;;;;;;5048435;28;20417;-87
2023/05/05 03:18:17;;;;;;;;;;;16.80;65.70;;;;;;5049815;28;19920;-87
2023/05/05 03:20:45;;;;;;;;;;;16.80;66.20;;;;;;5067715;28;19928;-87
2023/05/05 03:23:21;;;;;;;;;;;16.80;66.80;;;;;;5063979;28;19913;-86
2023/05/05 03:25:49;;;;;;;;;;;16.80;67.30;;;;;;5044883;28;19915;-86
2023/05/05 03:28:17;;;;;;;;;;;16.90;67.20;;;;;;5043266;28;19913;-87
2023/05/05 03:30:45;;;;;;;;;;;16.90;67.60;;;;;;5048612;28;19912;-86
2023/05/05 03:33:14;;;;;;;;;;;16.90;67.90;;;;;;5045799;28;20279;-86
2023/05/05 03:35:49;;;;;;;;;;;16.80;68.10;;;;;;5044974;28;20010;-86
2023/05/05 03:38:18;;;;;;;;;;;16.90;68.10;;;;;;5043858;28;19992;-86
2023/05/05 03:40:44;;;;;;;;;;;16.90;68.40;;;;;;5043125;28;19999;-86
2023/05/05 03:43:28;;;;;;;;;;;16.90;68.40;;;;;;5046627;28;20130;-87
2023/05/05 03:45:56;;;;;;;;;;;16.90;68.60;;;;;;5041208;28;19917;-87
2023/05/05 03:48:30;;;;;;;;;;;16.80;69.00;;;;;;5045038;28;19913;-87
2023/05/05 03:50:59;;;;;;;;;;;16.70;69.20;;;;;;5046154;28;19913;-87
2023/05/05 03:53:43;;;;;;;;;;;16.80;69.20;;;;;;5047479;28;19913;-87
2023/05/05 03:56:11;;;;;;;;;;;16.70;69.50;;;;;;5050440;28;20348;-87
2023/05/05 03:58:54;;;;;;;;;;;16.70;69.80;;;;;;5049910;28;20044;-87
2023/05/05 04:01:28;;;;;;;;;;;16.60;70.30;;;;;;5051694;28;19913;-87
2023/05/05 04:03:56;;;;;;;;;;;16.60;70.40;;;;;;5040238;28;19920;-87
2023/05/05 04:06:30;;;;;;;;;;;16.50;70.90;;;;;;5049493;28;19917;-87
2023/05/05 04:09:02;;;;;;;;;;;16.70;70.50;;;;;;5044395;28;19920;-87
2023/05/05 04:11:28;;;;;;;;;;;16.60;70.90;;;;;;5049005;28;20301;-88
2023/05/05 04:13:56;;;;;;;;;;;16.50;71.50;;;;;;5049681;28;19917;-87
2023/05/05 04:16:24;;;;;;;;;;;16.50;71.70;;;;;;5037557;28;19912;-88
2023/05/05 04:18:52;;;;;;;;;;;16.40;72.10;;;;;;5048005;28;19917;-87
2023/05/05 04:21:21;;;;;;;;;;;16.30;72.50;;;;;;5060049;28;19919;-88
2023/05/05 04:23:52;;;;;;;;;;;16.20;73.00;;;;;;5046765;28;19921;-88
2023/05/05 04:26:20;;;;;;;;;;;16.30;72.40;;;;;;5047691;28;19973;-88
2023/05/05 04:29:12;;;;;;;;;;;16.20;72.80;;;;;;5049101;28;19917;-88
2023/05/05 04:31:38;;;;;;;;;;;16.30;72.70;;;;;;5038275;28;19914;-87
2023/05/05 04:34:03;;;;;;;;;;;16.30;73.10;;;;;;5050792;28;19924;-87
2023/05/05 04:36:32;;;;;;;;;;;16.30;73.20;;;;;;5066170;28;19913;-87
2023/05/05 04:39:00;;;;;;;;;;;16.30;73.20;;;;;;5049235;28;19913;-87
2023/05/05 04:41:28;;;;;;;;;;;16.30;73.10;;;;;;5044281;28;20366;-89
2023/05/05 04:43:54;;;;;;;;;;;16.30;73.30;;;;;;5047998;28;20418;-87
2023/05/05 04:46:20;;;;;;;;;;;16.30;73.30;;;;;;5052296;28;19928;-88
2023/05/05 04:48:51;;;;;;;;;;;16.20;73.50;;;;;;5050757;28;19917;-88
2023/05/05 04:51:22;;;;;;;;;;;16.20;73.70;;;;;;5046171;28;19920;-88
2023/05/05 04:53:47;;;;;;;;;;;16.20;73.80;;;;;;5045315;28;19914;-88
2023/05/05 04:56:18;;;;;;;;;;;16.30;73.70;;;;;;5044940;28;20008;-88
2023/05/05 04:58:44;;;;;;;;;;;16.20;73.80;;;;;;5049377;28;19925;-87
2023/05/05 05:01:09;;;;;;;;;;;16.20;73.90;;;;;;5046430;28;20000;-88
2023/05/05 05:03:35;;;;;;;;;;;16.20;73.80;;;;;;5046634;28;20003;-87
2023/05/05 05:06:11;;;;;;;;;;;16.20;74.00;;;;;;5041870;28;19940;-87
2023/05/05 05:11:49;;;;;;;;;;;16.10;74.30;;;;;;5044027;28;19920;-88
2023/05/05 05:14:14;;;;;;;;;;;16.10;74.30;;;;;;5045840;28;19925;-89
2023/05/05 05:16:40;;;;;;;;;;;16.20;74.50;;;;;;5040587;28;20011;-86
2023/05/05 05:19:21;;;;;;;;;;;;;;;;;;;;;
2023/05/05 05:22:25;;;;;;;;;;;16.20;74.40;;;;;;5043245;28;20412;-88
2023/05/05 05:24:51;;;;;;;;;;;16.20;74.50;;;;;;5029178;28;19923;-89
2023/05/05 05:27:24;;;;;;;;;;;16.30;74.50;;;;;;5048123;28;19913;-88
2023/05/05 05:33:13;;;;;;;;;;;16.40;74.00;;;;;;5033344;28;19935;-88
2023/05/05 05:35:56;;;;;;;;;;;16.50;74.10;;;;;;5003780;28;20236;-92
2023/05/05 05:38:41;;;;;;;;;;;;;;;;;;;;;
2023/05/05 05:47:23;;;;;;;;;;;16.70;73.90;;;;;;5048302;28;19913;-90
2023/05/05 05:56:44;;;;;;;;;;;16.80;73.70;;;;;;5004848;28;19921;-88
2023/05/05 06:02:30;;;;;;;;;;;16.80;73.80;;;;;;5030970;28;19913;-88
2023/05/05 06:05:00;;;;;;;;;;;16.90;73.30;;;;;;5046878;28;20298;-89
2023/05/05 06:07:57;;;;;;;;;;;17.00;73.30;;;;;;5047399;28;19913;-88
2023/05/05 06:10:38;;;;;;;;;;;17.00;73.60;;;;;;5050959;28;19912;-87
2023/05/05 06:13:16;;;;;;;;;;;17.10;73.20;;;;;;5081853;23;20020;-88
2023/05/05 06:22:02;;;;;;;;;;;17.70;71.40;;;;;;5014344;28;19920;-86
2023/05/05 06:24:48;;;;;;;;;;;17.50;72.00;;;;;;4992606;28;19924;-89
2023/05/05 06:27:17;;;;;;;;;;;17.40;72.20;;;;;;5031033;28;19928;-88
2023/05/05 06:32:54;;;;;;;;;;;17.20;72.60;;;;;;5004713;28;19964;-88
2023/05/05 06:35:21;;;;;;;;;;;17.20;72.90;;;;;;5017359;28;19909;-87
2023/05/05 06:37:46;;;;;;;;;;;17.20;73.00;;;;;;5009463;28;19971;-87
2023/05/05 06:40:12;;;;;;;;;;;17.30;72.20;;;;;;5000927;28;19913;-88
2023/05/05 06:42:40;;;;;;;;;;;17.30;72.30;;;;;;5067426;23;19925;-88
2023/05/05 06:45:32;;;;;;;;;;;17.30;71.70;;;;;;5029985;28;20391;-89
2023/05/05 06:50:46;;;;;;;;;;;17.20;71.70;;;;;;4947079;28;20328;-87
2023/05/05 06:53:11;;;;;;;;;;;17.20;71.70;;;;;;4991127;28;19913;-90
2023/05/05 06:55:37;;;;;;;;;;;17.30;70.60;;;;;;5009340;28;20410;-86
2023/05/05 06:58:08;;;;;;;;;;;17.40;70.50;;;;;;5006934;28;19925;-91
2023/05/05 07:01:15;;;;;;;;;;;17.50;70.20;;;;;;5012033;28;19989;-87
2023/05/05 07:04:10;;;;;;;;;;;17.60;69.60;;;;;;4974206;28;20368;-87
2023/05/05 07:06:54;;;;;;;;;;;17.70;69.40;;;;;;4955637;28;19922;-89
2023/05/05 07:09:23;;;;;;;;;;;17.70;68.70;;;;;;5006115;28;19914;-88
2023/05/05 07:11:51;;;;;;;;;;;17.80;67.80;;;;;;5007769;28;19920;-90
2023/05/05 07:14:20;;;;;;;;;;;17.80;68.50;;;;;;4998634;28;19914;-88
2023/05/05 07:16:52;;;;;;;;;;;17.90;68.20;;;;;;5008900;28;19967;-88
2023/05/05 07:19:17;;;;;;;;;;;17.90;68.30;;;;;;5017287;28;20457;-89
2023/05/05 07:21:53;;;;;;;;;;;18.00;68.10;;;;;;5023924;22;20000;-86
2023/05/05 07:24:19;;;;;;;;;;;18.10;67.80;;;;;;5050414;28;19925;-85
2023/05/05 07:26:45;;;;;;;;;;;18.10;67.00;;;;;;5058467;28;19923;-85
2023/05/05 07:29:10;;;;;;;;;;;18.10;66.80;;;;;;5064093;28;19939;-84
2023/05/05 07:31:35;;;;;;;;;;;18.20;66.60;;;;;;5061154;28;19909;-85
2023/05/05 07:34:01;;;;;;;;;;;18.20;66.30;;;;;;5050625;28;19927;-85
2023/05/05 07:36:27;;;;;;;;;;;18.30;66.00;;;;;;5046024;28;20343;-84
2023/05/05 07:38:52;;;;;;;;;;;18.40;64.70;;;;;;5039260;28;19921;-85
2023/05/05 07:41:18;;;;;;;;;;;18.50;64.30;;;;;;5056611;28;19948;-85
2023/05/05 07:43:44;;;;;;;;;;;18.50;64.40;;;;;;5054190;28;19964;-85
2023/05/05 07:46:10;;;;;;;;;;;18.60;64.40;;;;;;5042426;28;19920;-86
2023/05/05 07:48:36;;;;;;;;;;;18.60;64.40;;;;;;5058131;28;19954;-85
2023/05/05 07:51:01;;;;;;;;;;;18.60;64.20;;;;;;5058076;28;19909;-85
2023/05/05 07:53:27;;;;;;;;;;;18.50;64.80;;;;;;5057054;28;20304;-84
2023/05/05 07:55:53;;;;;;;;;;;18.50;64.30;;;;;;5041582;28;19913;-86
2023/05/05 07:58:19;;;;;;;;;;;18.50;64.30;;;;;;5040315;28;19935;-86
2023/05/05 08:00:44;;;;;;;;;;;18.50;64.40;;;;;;5036495;28;19917;-85
2023/05/05 08:03:10;;;;;;;;;;;18.50;64.80;;;;;;5037021;28;19920;-85
2023/05/05 08:05:36;;;;;;;;;;;18.50;65.10;;;;;;5046309;28;19917;-86
2023/05/05 08:08:02;;;;;;;;;;;18.70;64.60;;;;;;5045503;28;19909;-85
2023/05/05 08:10:28;;;;;;;;;;;18.80;64.20;;;;;;5038931;28;19913;-86
2023/05/05 08:12:53;;;;;;;;;;;18.70;63.50;;;;;;5036625;28;20538;-85
2023/05/05 08:15:19;;;;;;;;;;;18.80;63.70;;;;;;5036288;28;19913;-85
2023/05/05 08:17:46;;;;;;;;;;;18.90;63.40;;;;;;5043297;28;19921;-85
2023/05/05 08:20:12;;;;;;;;;;;18.90;64.00;;;;;;5047314;28;19915;-85
2023/05/05 08:22:37;;;;;;;;;;;19.00;63.50;;;;;;5058318;28;20015;-84
2023/05/05 08:25:03;;;;;;;;;;;19.10;62.90;;;;;;5047309;28;19913;-84
2023/05/05 08:27:28;;;;;;;;;;;19.10;63.30;;;;;;5049541;28;19909;-85
2023/05/05 08:29:53;;;;;;;;;;;19.20;62.30;;;;;;5057190;28;19913;-84
2023/05/05 08:32:19;;;;;;;;;;;19.30;62.00;;;;;;5048245;28;19913;-84
2023/05/05 08:34:45;;;;;;;;;;;19.30;62.80;;;;;;5040344;28;19973;-85
2023/05/05 08:37:10;;;;;;;;;;;19.30;63.20;;;;;;5050139;28;19924;-85
2023/05/05 08:39:36;;;;;;;;;;;19.30;62.50;;;;;;5055890;28;19909;-85
2023/05/05 08:42:02;;;;;;;;;;;19.40;62.00;;;;;;5054871;28;19913;-86
2023/05/05 08:44:27;;;;;;;;;;;19.40;61.70;;;;;;5056197;28;20261;-84
2023/05/05 08:46:53;;;;;;;;;;;19.40;61.70;;;;;;5056749;28;19932;-86
2023/05/05 08:49:19;;;;;;;;;;;19.50;60.30;;;;;;5044587;28;19975;-86
2023/05/05 08:51:44;;;;;;;;;;;19.60;61.10;;;;;;5037990;28;19924;-86
2023/05/05 08:54:18;;;;;;;;;;;19.50;61.10;;;;;;5051918;28;19956;-86
2023/05/05 08:56:45;;;;;;;;;;;19.60;60.30;;;;;;5054249;28;19924;-86
2023/05/05 08:59:12;;;;;;;;;;;19.70;59.60;;;;;;5053234;28;19939;-88
2023/05/05 09:01:38;;;;;;;;;;;19.80;59.80;;;;;;5035615;28;20008;-87
2023/05/05 09:04:04;;;;;;;;;;;19.80;59.90;;;;;;5047424;28;19913;-87
2023/05/05 09:06:31;;;;;;;;;;;19.90;60.30;;;;;;5053587;28;19920;-86
2023/05/05 09:08:56;;;;;;;;;;;19.90;59.90;;;;;;5053166;28;19988;-89
2023/05/05 09:11:27;;;;;;;;;;;19.90;59.90;;;;;;5057916;28;20338;-87
2023/05/05 09:13:54;;;;;;;;;;;19.90;58.30;;;;;;5084629;22;19982;-80
2023/05/05 09:16:20;;;;;;;;;;;19.70;59.20;;;;;;5074079;28;19913;-79
2023/05/05 09:18:46;;;;;;;;;;;19.80;59.60;;;;;;5058149;28;19921;-79
2023/05/05 09:21:19;;;;;;;;;;;19.90;59.60;;;;;;5067181;28;19987;-79
2023/05/05 09:24:04;;;;;;;;;;;19.80;59.40;;;;;;5068535;28;19913;-80
2023/05/05 09:26:34;;;;;;;;;;;19.80;60.40;;;;;;5063324;28;19909;-80
2023/05/05 09:29:01;;;;;;;;;;;19.90;60.40;;;;;;5055747;28;19956;-80
2023/05/05 09:31:29;;;;;;;;;;;19.90;60.60;;;;;;5045087;28;19909;-80
2023/05/05 09:33:55;;;;;;;;;;;20.10;59.60;;;;;;5063955;28;19972;-80
2023/05/05 09:36:39;;;;;;;;;;;20.10;59.40;;;;;;5063344;28;19952;-79
2023/05/05 09:39:05;;;;;;;;;;;20.10;59.10;;;;;;5064102;28;19916;-80
2023/05/05 09:41:37;;;;;;;;;;;20.10;59.70;;;;;;5061817;28;20345;-80
2023/05/05 09:44:03;;;;;;;;;;;20.30;59.80;;;;;;5058247;28;19923;-80
2023/05/05 09:46:28;;;;;;;;;;;20.40;59.60;;;;;;5049013;28;19909;-80
2023/05/05 09:48:54;;;;;;;;;;;20.40;58.20;;;;;;5043194;28;19936;-80
2023/05/05 09:51:27;;;;;;;;;;;20.40;58.20;;;;;;5046988;28;20377;-79
2023/05/05 09:53:53;;;;;;;;;;;20.50;57.80;;;;;;5060443;28;20375;-80
2023/05/05 09:56:19;;;;;;;;;;;20.50;58.70;;;;;;5063065;28;19906;-82
2023/05/05 09:58:45;;;;;;;;;;;20.70;58.20;;;;;;5065304;28;19921;-82
2023/05/05 10:01:20;;;;;;;;;;;20.90;57.40;;;;;;5071592;28;19935;-83
2023/05/05 10:03:51;;;;;;;;;;;21.00;57.30;;;;;;5056006;28;19917;-79
2023/05/05 10:06:16;;;;;;;;;;;21.00;58.20;;;;;;5051339;28;19912;-80
2023/05/05 10:08:41;;;;;;;;;;;21.10;58.40;;;;;;5047741;28;20276;-79
2023/05/05 10:11:07;;;;;;;;;;;21.00;57.30;;;;;;5048464;28;20347;-81
2023/05/05 10:13:38;;;;;;;;;;;20.90;57.40;;;;;;5049593;28;19925;-80
2023/05/05 10:16:07;;;;;;;;;;;20.80;57.20;;;;;;5045236;28;20517;-80
2023/05/05 10:18:32;;;;;;;;;;;20.60;57.90;;;;;;5046964;28;19917;-80
2023/05/05 10:21:02;;;;;;;;;;;20.60;58.60;;;;;;5047860;28;19924;-80
2023/05/05 10:23:33;;;;;;;;;;;20.70;58.30;;;;;;5049405;28;19924;-80
2023/05/05 10:26:04;;;;;;;;;;;20.60;58.50;;;;;;5067284;28;19928;-81
2023/05/05 10:28:33;;;;;;;;;;;20.80;58.10;;;;;;5042516;28;19921;-80
2023/05/05 10:31:00;;;;;;;;;;;21.00;57.70;;;;;;5048967;28;19919;-79
2023/05/05 10:33:29;;;;;;;;;;;21.00;57.60;;;;;;5047122;28;19913;-80
2023/05/05 10:35:56;;;;;;;;;;;20.90;58.30;;;;;;5042929;28;19913;-80
2023/05/05 10:38:22;;;;;;;;;;;21.00;57.70;;;;;;5067931;28;20050;-80
2023/05/05 10:40:47;;;;;;;;;;;21.10;58.40;;;;;;5043002;28;19971;-81
2023/05/05 10:43:13;;;;;;;;;;;21.10;58.00;;;;;;5049658;28;19917;-82
2023/05/05 10:45:40;;;;;;;;;;;21.00;56.90;;;;;;5041357;28;19920;-81
2023/05/05 10:48:08;;;;;;;;;;;21.00;57.80;;;;;;5040079;28;20546;-81
2023/05/05 10:50:37;;;;;;;;;;;21.10;57.70;;;;;;5048330;28;20384;-81
2023/05/05 10:53:24;;;;;;;;;;;21.30;58.00;;;;;;5046378;28;19954;-81
2023/05/05 10:56:01;;;;;;;;;;;21.30;57.10;;;;;;5038336;28;19916;-80
2023/05/05 10:58:37;;;;;;;;;;;21.30;57.80;;;;;;5048330;28;20039;-81
2023/05/05 11:01:03;;;;;;;;;;;21.40;56.30;;;;;;5050318;28;20300;-80
2023/05/05 11:03:28;;;;;;;;;;;21.50;56.90;;;;;;5053827;28;19909;-82
2023/05/05 11:06:03;;;;;;;;;;;21.50;56.50;;;;;;5060449;28;19912;-81
2023/05/05 11:08:29;;;;;;;;;;;21.50;57.10;;;;;;5055978;28;19913;-80
2023/05/05 11:10:54;;;;;;;;;;;21.50;56.40;;;;;;5042869;28;20040;-80
2023/05/05 11:13:20;;;;;;;;;;;21.40;56.50;;;;;;5040942;28;19954;-83
2023/05/05 11:15:46;;;;;;;;;;;21.50;56.90;;;;;;5047218;28;20740;-82
2023/05/05 11:18:30;;;;;;;;;;;21.60;56.80;;;;;;5052137;28;20261;-82
2023/05/05 11:20:56;;;;;;;;;;;21.60;55.80;;;;;;5034508;28;19948;-82
2023/05/05 11:23:21;;;;;;;;;;;21.80;55.20;;;;;;5034528;28;19909;-82
2023/05/05 11:25:47;;;;;;;;;;;21.90;55.30;;;;;;5041093;28;19917;-83
2023/05/05 11:28:13;;;;;;;;;;;22.10;54.10;;;;;;5035777;28;19917;-83
2023/05/05 11:30:57;;;;;;;;;;;22.20;54.20;;;;;;5033164;28;20015;-83
2023/05/05 11:33:30;;;;;;;;;;;22.30;54.20;;;;;;5052521;28;19981;-82
2023/05/05 11:35:55;;;;;;;;;;;22.40;53.90;;;;;;5051231;28;20387;-83
2023/05/05 11:38:24;;;;;;;;;;;22.30;54.00;;;;;;5052684;28;20005;-83
2023/05/05 11:40:52;;;;;;;;;;;22.50;52.70;;;;;;5054282;28;20396;-83
2023/05/05 11:43:17;;;;;;;;;;;22.60;52.20;;;;;;5043535;28;20006;-83
2023/05/05 11:45:43;;;;;;;;;;;22.60;51.90;;;;;;5052413;28;20281;-83
2023/05/05 11:49:03;;;;;;;;;;;22.50;52.50;;;;;;5142444;22;20022;-83
2023/05/05 11:52:34;;;;;;;;;;;22.40;51.50;;;;;;4970888;28;19937;-83
2023/05/05 11:54:59;;;;;;;;;;;22.20;52.60;;;;;;4967937;28;19964;-83
2023/05/05 11:57:33;;;;;;;;;;;22.10;52.30;;;;;;5040276;28;19978;-85
2023/05/05 12:00:40;;;;;;;;;;;22.10;52.50;;;;;;5035602;28;19991;-85
2023/05/05 12:03:44;;;;;;;;;;;22.10;53.70;;;;;;4993504;28;19928;-85
2023/05/05 12:06:12;;;;;;;;;;;22.00;53.90;;;;;;4993583;28;19989;-86
2023/05/05 12:08:38;;;;;;;;;;;21.90;53.80;;;;;;5058184;28;19970;-87
2023/05/05 12:11:05;;;;;;;;;;;21.90;54.10;;;;;;5038775;28;19921;-86
2023/05/05 12:13:54;;;;;;;;;;;21.80;54.50;;;;;;5029612;28;19941;-86
2023/05/05 12:16:22;;;;;;;;;;;21.70;56.10;;;;;;5038140;28;19921;-84
2023/05/05 12:19:33;;;;;;;;;;;;;;;;;;;;;
2023/05/05 12:22:08;;;;;;;;;;;21.60;56.50;;;;;;5053011;28;19919;-83
2023/05/05 12:31:10;;;;;;;;;;;21.50;55.70;;;;;;5044192;28;19913;-83
2023/05/05 12:33:51;;;;;;;;;;;21.60;55.70;;;;;;5052951;28;19920;-83
2023/05/05 12:39:33;;;;;;;;;;;21.50;57.90;;;;;;5096725;22;19928;-83
2023/05/05 12:42:36;;;;;;;;;;;21.30;58.90;;;;;;5066249;28;20376;-84
2023/05/05 12:45:16;;;;;;;;;;;21.00;62.30;;;;;;5069151;28;19913;-83
2023/05/05 12:47:47;;;;;;;;;;;20.50;64.20;;;;;;5066427;28;19913;-83
2023/05/05 12:50:13;;;;;;;;;;;20.10;67.20;;;;;;5067227;28;19917;-85
2023/05/05 12:52:42;;;;;;;;;;;19.70;71.30;;;;;;5050805;28;19913;-85
2023/05/05 12:55:08;;;;;;;;;;;19.30;74.30;;;;;;5039611;28;19909;-85
2023/05/05 12:57:35;;;;;;;;;;;19.00;75.00;;;;;;5052557;28;19921;-84
2023/05/05 13:00:11;;;;;;;;;;;18.70;75.80;;;;;;5058358;28;19970;-84
2023/05/05 13:02:36;;;;;;;;;;;18.40;75.90;;;;;;5049366;28;20003;-85
2023/05/05 13:05:02;;;;;;;;;;;18.20;76.70;;;;;;5054149;28;19967;-84
2023/05/05 13:07:27;;;;;;;;;;;18.20;78.50;;;;;;5058952;28;19977;-84
2023/05/05 13:10:04;;;;;;;;;;;18.10;77.90;;;;;;5052339;28;20498;-85
2023/05/05 13:12:30;;;;;;;;;;;18.00;76.70;;;;;;5041152;28;19931;-85
2023/05/05 13:14:55;;;;;;;;;;;18.00;78.50;;;;;;5050272;28;20345;-85
2023/05/05 13:17:21;;;;;;;;;;;17.90;77.90;;;;;;5047889;28;19916;-84
2023/05/05 13:19:46;;;;;;;;;;;18.00;77.70;;;;;;5035805;28;19916;-85
2023/05/05 13:22:12;;;;;;;;;;;18.00;77.90;;;;;;5046921;28;19913;-84
2023/05/05 13:24:38;;;;;;;;;;;18.10;77.00;;;;;;5057835;28;19952;-84
2023/05/05 13:27:03;;;;;;;;;;;18.00;78.80;;;;;;5056889;28;19913;-84
2023/05/05 13:29:30;;;;;;;;;;;18.10;78.30;;;;;;5069461;28;20330;-84
2023/05/05 13:31:55;;;;;;;;;;;18.20;77.90;;;;;;5047262;28;19928;-85
2023/05/05 13:34:20;;;;;;;;;;;18.30;78.60;;;;;;5061353;28;19932;-85
2023/05/05 13:36:47;;;;;;;;;;;18.40;78.30;;;;;;5045036;28;19916;-84
2023/05/05 13:39:12;;;;;;;;;;;18.50;79.30;;;;;;5038875;28;19992;-84
2023/05/05 13:41:38;;;;;;;;;;;18.70;78.90;;;;;;5059652;28;19977;-84
2023/05/05 13:44:04;;;;;;;;;;;18.80;77.80;;;;;;5062704;28;19913;-84
2023/05/05 13:46:29;;;;;;;;;;;18.90;77.50;;;;;;5051805;28;19917;-84
2023/05/05 13:48:55;;;;;;;;;;;19.10;74.90;;;;;;5059324;28;20292;-84
2023/05/05 13:51:20;;;;;;;;;;;19.20;72.90;;;;;;5055810;28;20288;-84
2023/05/05 13:53:46;;;;;;;;;;;19.40;71.70;;;;;;5058315;28;19921;-85
2023/05/05 13:56:11;;;;;;;;;;;19.40;71.70;;;;;;5056108;28;20368;-85
2023/05/05 13:58:37;;;;;;;;;;;19.40;71.80;;;;;;5058565;28;19916;-85
2023/05/05 14:01:03;;;;;;;;;;;19.50;70.70;;;;;;5055919;28;20424;-85
2023/05/05 14:03:29;;;;;;;;;;;19.40;70.70;;;;;;5043635;28;19913;-84
2023/05/05 14:05:54;;;;;;;;;;;19.30;71.40;;;;;;5038335;28;19951;-86
2023/05/05 14:08:20;;;;;;;;;;;19.40;72.10;;;;;;5043599;28;19960;-83
2023/05/05 14:10:45;;;;;;;;;;;19.50;72.10;;;;;;5043088;28;19912;-82
2023/05/05 14:13:11;;;;;;;;;;;19.60;72.20;;;;;;5042554;28;20296;-82
2023/05/05 14:15:37;;;;;;;;;;;19.70;71.10;;;;;;5053019;28;19992;-80
2023/05/05 14:18:02;;;;;;;;;;;19.70;71.60;;;;;;5045594;28;20035;-80
2023/05/05 14:20:28;;;;;;;;;;;19.70;70.10;;;;;;5047061;28;20351;-79
2023/05/05 14:22:55;;;;;;;;;;;19.70;69.20;;;;;;5045665;28;19909;-80
2023/05/05 14:25:20;;;;;;;;;;;19.60;69.80;;;;;;5042005;28;19913;-83
2023/05/05 14:27:46;;;;;;;;;;;19.70;70.00;;;;;;5059573;28;19912;-78
2023/05/05 14:30:12;;;;;;;;;;;19.80;71.00;;;;;;5053010;28;20007;-78
2023/05/05 14:32:37;;;;;;;;;;;19.70;68.80;;;;;;5051459;28;20329;-78
2023/05/05 14:35:03;;;;;;;;;;;19.60;68.40;;;;;;5044613;28;19924;-82
2023/05/05 14:37:28;;;;;;;;;;;19.70;67.30;;;;;;5058215;28;19926;-81
2023/05/05 14:39:54;;;;;;;;;;;19.40;68.40;;;;;;5051155;28;20323;-82
2023/05/05 14:42:20;;;;;;;;;;;19.40;70.40;;;;;;5056577;28;19927;-83
2023/05/05 14:44:45;;;;;;;;;;;19.40;70.60;;;;;;5053949;28;19917;-83
2023/05/05 14:47:11;;;;;;;;;;;19.50;69.80;;;;;;5047688;28;19909;-83
2023/05/05 14:49:36;;;;;;;;;;;19.60;69.90;;;;;;5046616;28;19913;-82
2023/05/05 14:52:02;;;;;;;;;;;19.50;70.10;;;;;;5045974;28;19920;-83
2023/05/05 14:54:27;;;;;;;;;;;19.30;70.80;;;;;;5051984;28;20003;-82
2023/05/05 14:56:53;;;;;;;;;;;19.20;71.80;;;;;;5051517;28;19916;-82
2023/05/05 14:59:18;;;;;;;;;;;19.10;72.00;;;;;;5071627;28;19912;-82
2023/05/05 15:01:44;;;;;;;;;;;19.00;72.80;;;;;;5056867;28;19932;-82
2023/05/05 15:04:09;;;;;;;;;;;19.00;72.70;;;;;;5046242;28;19924;-83
2023/05/05 15:06:35;;;;;;;;;;;18.90;73.40;;;;;;5048250;28;20020;-82
2023/05/05 15:09:00;;;;;;;;;;;18.80;73.50;;;;;;5055547;28;20300;-83
2023/05/05 15:11:26;;;;;;;;;;;18.90;73.60;;;;;;5051120;28;19966;-83
2023/05/05 15:13:51;;;;;;;;;;;18.90;73.50;;;;;;5059277;28;19924;-84
2023/05/05 15:16:17;;;;;;;;;;;18.90;73.80;;;;;;5063675;28;19916;-84
2023/05/05 15:18:42;;;;;;;;;;;18.90;72.40;;;;;;5081207;28;19927;-84